Terminal Aerodrome Forecast
Issued by NWS

Home | Current Version | Previous Version | Text Only | Print | Product List | Glossary On
Versions: 1 2 3 4 5 6 7 8 9 10 11 12 13 14 15 16 17 18 19 20 21 22 23 24 25 26 27 28 29 30 31 32 33 34 35 36 37 38 39 40 41 42 43 44 45 46 47 48 49 50
000
FTUS41 KOKX 222340
TAFGON
TAF
KGON 222340Z 2300/2324 02011G20KT P6SM -SHRA FEW020 BKN040 OVC050
      TEMPO 2300/2304 4SM -SHRA BR BKN020
     FM230500 35007KT P6SM SCT007 OVC010
     FM231000 35007KT P6SM BKN020
     FM231400 36008KT P6SM SCT020 BKN035
     FM231700 22008KT P6SM FEW040 BKN250
     FM231900 17008KT P6SM SCT040 BKN250=

USA.gov is the U.S. government's official web portal to all federal, state and local government web resources and services.